Time;durP1;ratioP1;P1;durP2;ratioP2;P2;SDS_P1;SDS_P2;PMS_P1;PMS_P2;Temp;Humidity;BMP_temperature;BMP_pressure;BME280_temperature;BME280_humidity;BME280_pressure;Samples;Min_cycle;Max_cycle;Signal;HPM_P1;HPM_P2
2021/04/01 00:03:46;;;;;;;7.00;4.78;;;;;;;12.45;51.85;98506.48;3758931;79;43443;-26
2021/04/01 00:08:52;;;;;;;8.25;4.97;;;;;;;12.33;52.77;98496.55;3758848;79;44061;-24
2021/04/01 00:14:01;;;;;;;10.70;5.05;;;;;;;12.10;53.76;98505.34;3757168;77;44118;-26
2021/04/01 00:19:07;;;;;;;9.43;4.72;;;;;;;12.04;53.96;98495.72;3758319;77;43478;-25
2021/04/01 00:24:13;;;;;;;6.72;4.58;;;;;;;11.94;54.75;98498.02;3758757;79;43775;-26
2021/04/01 00:29:19;;;;;;;6.35;4.47;;;;;;;11.93;54.40;98485.56;3759377;77;44192;-26
2021/04/01 00:34:25;;;;;;;8.38;4.85;;;;;;;11.86;54.90;98484.53;3759266;77;43169;-27
2021/04/01 00:39:31;;;;;;;8.23;4.83;;;;;;;11.75;55.63;98480.33;3760002;79;44084;-27
2021/04/01 00:44:38;;;;;;;9.00;4.97;;;;;;;11.66;55.99;98470.02;3759306;77;43424;-26
2021/04/01 00:49:44;;;;;;;6.03;4.55;;;;;;;11.60;56.46;98470.67;3759712;79;44019;-26
2021/04/01 00:54:50;;;;;;;8.13;5.03;;;;;;;11.52;57.37;98467.97;3758305;79;43990;-26
2021/04/01 00:59:56;;;;;;;8.00;4.87;;;;;;;11.44;57.67;98462.05;3761403;77;44162;-26
2021/04/01 01:05:03;;;;;;;6.37;4.45;;;;;;;11.33;58.19;98456.97;3759165;77;43329;-26
2021/04/01 01:10:12;;;;;;;7.62;4.35;;;;;;;11.26;58.56;98464.88;3763464;77;43671;-26
2021/04/01 01:15:18;;;;;;;8.53;4.80;;;;;;;11.16;59.26;98461.48;3759754;77;44033;-25
2021/04/01 01:20:26;;;;;;;7.37;4.90;;;;;;;11.06;60.06;98445.44;3759816;79;42783;-25
2021/04/01 01:25:34;;;;;;;6.58;4.75;;;;;;;10.93;60.81;98449.47;3750746;79;44063;-26
2021/04/01 01:30:40;;;;;;;8.55;5.25;;;;;;;10.77;62.20;98452.08;3759968;78;43730;-26
2021/04/01 01:35:48;;;;;;;9.83;5.47;;;;;;;10.68;62.78;98439.59;3760416;79;44160;-23
2021/04/01 01:40:53;;;;;;;7.47;5.22;;;;;;;10.56;64.31;98440.36;3758779;77;44255;-27
2021/04/01 01:46:01;;;;;;;7.47;4.97;;;;;;;10.42;64.85;98436.42;3760512;79;26352;-24
2021/04/01 01:51:07;;;;;;;8.03;5.22;;;;;;;10.33;66.38;98432.80;3757586;77;44049;-24
2021/04/01 01:56:19;;;;;;;6.97;4.87;;;;;;;10.28;65.43;98431.94;3764318;77;43871;-26
2021/04/01 02:01:26;;;;;;;7.03;5.15;;;;;;;10.25;66.19;98434.94;3759800;79;42775;-25
2021/04/01 02:06:32;;;;;;;7.45;5.30;;;;;;;10.21;66.15;98436.77;3760132;79;44062;-25
2021/04/01 02:11:38;;;;;;;8.03;5.20;;;;;;;10.10;66.60;98431.98;3760363;79;44051;-25
2021/04/01 02:16:44;;;;;;;9.43;5.97;;;;;;;10.08;66.67;98430.47;3761375;77;43705;-25
2021/04/01 02:21:50;;;;;;;7.90;5.70;;;;;;;10.05;66.64;98426.25;3755677;77;44094;-25
2021/04/01 02:26:59;;;;;;;8.53;5.67;;;;;;;9.95;67.66;98429.03;3759530;79;44085;-25
2021/04/01 02:32:06;;;;;;;8.85;5.65;;;;;;;9.72;69.76;98420.60;3759726;78;43628;-24
2021/04/01 02:37:12;;;;;;;7.28;5.08;;;;;;;9.71;69.48;98416.22;3760624;77;43720;-24
2021/04/01 02:42:18;;;;;;;9.13;5.28;;;;;;;9.75;69.31;98417.61;3760492;79;44001;-25
2021/04/01 02:47:24;;;;;;;8.78;5.40;;;;;;;9.70;69.49;98414.56;3760792;78;42600;-24
2021/04/01 02:52:30;;;;;;;10.20;5.80;;;;;;;9.70;69.48;98415.39;3758559;77;43400;-24
2021/04/01 02:57:36;;;;;;;8.43;5.50;;;;;;;9.67;70.19;98413.00;3759765;77;44046;-25
2021/04/01 03:02:45;;;;;;;9.48;5.70;;;;;;;9.64;69.76;98399.86;3756949;79;43990;-24
2021/04/01 03:07:50;;;;;;;10.82;5.65;;;;;;;9.58;70.23;98394.28;3760417;79;43164;-25
2021/04/01 03:12:56;;;;;;;9.08;5.65;;;;;;;9.52;70.87;98397.92;3760197;79;44271;-24
2021/04/01 03:18:02;;;;;;;7.35;5.37;;;;;;;9.44;71.10;98396.52;3759602;79;43473;-25
2021/04/01 03:23:08;;;;;;;7.35;5.33;;;;;;;9.41;71.72;98394.97;3755557;77;44065;-25
2021/04/01 03:28:15;;;;;;;8.45;5.10;;;;;;;9.40;71.24;98396.47;3757880;77;43730;-25
2021/04/01 03:33:21;;;;;;;7.03;4.80;;;;;;;9.35;71.86;98401.48;3745760;77;44030;-24
2021/04/01 03:38:28;;;;;;;7.72;5.85;;;;;;;9.27;72.47;98393.33;3735282;79;43717;-23
2021/04/01 03:43:34;;;;;;;6.85;4.85;;;;;;;9.20;72.93;98401.16;3735615;79;44117;-23
2021/04/01 03:48:40;;;;;;;9.30;5.92;;;;;;;9.12;73.46;98393.84;3735865;79;43730;-22
2021/04/01 03:53:46;;;;;;;8.03;5.37;;;;;;;9.07;73.71;98388.10;3731108;79;43377;-23
2021/04/01 03:58:57;;;;;;;10.43;6.30;;;;;;;9.00;73.90;98384.31;3733892;78;44037;-23
2021/04/01 04:04:13;;;;;;;10.98;5.97;;;;;;;8.93;74.70;98385.45;3734821;78;43995;-24
2021/04/01 04:09:33;;;;;;;9.83;6.47;;;;;;;8.92;74.66;98383.25;3735315;79;44027;-23
2021/04/01 04:14:38;;;;;;;10.32;5.87;;;;;;;8.91;74.62;98384.75;3734843;79;43705;-25
2021/04/01 04:19:42;;;;;;;11.18;6.25;;;;;;;8.87;75.25;98380.19;3735182;79;44101;-25
2021/04/01 04:24:48;;;;;;;11.10;6.10;;;;;;;8.79;76.53;98384.97;3735175;79;43754;-25
2021/04/01 04:30:00;;;;;;;8.60;5.47;;;;;;;8.76;75.76;98373.69;3735446;79;45123;-25
2021/04/01 04:35:10;;;;;;;8.33;6.10;;;;;;;8.77;75.07;98369.97;3755286;77;43433;-23
2021/04/01 04:40:17;;;;;;;13.25;5.90;;;;;;;8.79;75.14;98374.70;3759400;77;43007;-24
2021/04/01 04:45:23;;;;;;;10.68;6.40;;;;;;;8.75;75.12;98369.31;3759478;78;43029;-25
2021/04/01 04:50:29;;;;;;;9.60;6.20;;;;;;;8.74;74.95;98371.64;3759837;79;44087;-24
2021/04/01 04:55:34;;;;;;;11.22;6.75;;;;;;;8.73;75.74;98374.81;3759252;79;44091;-25
2021/04/01 05:06:27;;;;;;;9.05;5.95;;;;;;;8.72;75.50;98379.00;3744574;77;44206;-22
2021/04/01 05:11:25;;;;;;;8.85;6.33;;;;;;;8.64;77.14;98377.89;3756592;77;43697;-24
2021/04/01 05:16:32;;;;;;;17.23;6.75;;;;;;;8.54;78.60;98387.84;3760114;77;44133;-22
2021/04/01 05:21:45;;;;;;;14.07;7.05;;;;;;;8.33;79.95;98386.22;3759661;79;43406;-22
2021/04/01 05:27:11;;;;;;;12.75;6.33;;;;;;;8.28;80.84;98391.69;3759646;78;43286;-24
2021/04/01 05:32:15;;;;;;;11.03;6.55;;;;;;;8.24;80.68;98386.25;3754915;78;43697;-24
2021/04/01 05:37:23;;;;;;;11.95;6.65;;;;;;;8.24;81.22;98382.22;3759408;79;44627;-24
2021/04/01 05:42:34;;;;;;;11.83;6.90;;;;;;;8.24;81.74;98387.59;3759176;77;43081;-23
2021/04/01 05:47:42;;;;;;;13.43;7.17;;;;;;;8.27;81.46;98392.20;3759445;77;44034;-23
2021/04/01 06:04:40;;;;;;;11.63;7.47;;;;;;;8.26;85.01;98401.23;3758677;79;44069;-22
2021/04/01 06:09:49;;;;;;;11.15;6.85;;;;;;;8.39;83.92;98403.58;3758009;79;43421;-23
2021/04/01 06:15:02;;;;;;;13.22;6.83;;;;;;;8.66;82.42;98405.09;3759680;77;44114;-24
2021/04/01 06:20:10;;;;;;;12.40;6.97;;;;;;;8.83;80.71;98400.77;3755330;77;43682;-24
2021/04/01 06:25:17;;;;;;;11.35;6.97;;;;;;;9.02;79.50;98406.52;3759596;79;43110;-24
2021/04/01 06:30:26;;;;;;;12.00;7.37;;;;;;;9.14;79.47;98402.61;3759728;79;44044;-24
2021/04/01 06:35:40;;;;;;;13.75;6.87;;;;;;;9.30;79.75;98396.54;3742123;79;43458;-24
2021/04/01 06:41:12;;;;;;;11.33;6.90;;;;;;;9.41;80.11;98406.23;3735102;79;43432;-24
2021/04/01 06:46:18;;;;;;;11.97;6.62;;;;;;;9.52;79.91;98395.75;3735353;79;44002;-23
2021/04/01 06:51:28;;;;;;;9.93;6.03;;;;;;;9.63;80.48;98398.67;3736534;78;43994;-24
2021/04/01 06:56:44;;;;;;;10.45;6.67;;;;;;;9.71;79.72;98399.59;3734851;78;44136;-24
2021/04/01 07:01:52;;;;;;;8.60;6.35;;;;;;;9.86;81.78;98407.94;3729613;78;44100;-24
2021/04/01 07:07:05;;;;;;;10.82;6.20;;;;;;;9.95;81.54;98399.91;3737199;78;44010;-24
2021/04/01 07:12:16;;;;;;;9.63;6.53;;;;;;;10.03;80.17;98407.55;3730837;79;42915;-24
2021/04/01 07:17:26;;;;;;;9.13;6.47;;;;;;;10.27;79.74;98407.87;3730951;79;43756;-23
2021/04/01 07:44:53;;;;;;;8.73;6.35;;;;;;;10.92;78.37;98415.91;3759596;79;43723;-24
2021/04/01 07:49:59;;;;;;;9.35;6.37;;;;;;;11.03;79.13;98424.22;3758532;79;45324;-24
2021/04/01 07:55:20;;;;;;;12.25;7.17;;;;;;;11.29;77.66;98420.05;3758852;77;43672;-24
2021/04/01 08:00:23;;;;;;;14.70;7.50;;;;;;;11.46;76.53;98421.44;3758091;77;44104;-24
2021/04/01 08:05:33;;;;;;;12.50;7.20;;;;;;;11.59;76.57;98419.06;3759265;77;43381;-24
2021/04/01 08:10:42;;;;;;;12.25;7.75;;;;;;;11.67;77.15;98430.37;3759852;79;43669;-24
2021/04/01 08:15:52;;;;;;;14.83;7.90;;;;;;;11.79;77.00;98425.49;3759819;79;44078;-24
2021/04/01 08:21:02;;;;;;;12.73;7.80;;;;;;;11.95;76.56;98415.19;3758823;79;43246;-24
2021/04/01 08:26:20;;;;;;;13.93;7.55;;;;;;;12.14;77.23;98418.06;3754962;79;43680;-24
2021/04/01 08:36:55;;;;;;;15.70;8.30;;;;;;;12.46;78.83;98424.41;3755244;77;43708;-24
2021/04/01 08:42:41;;;;;;;14.13;8.40;;;;;;;12.73;76.58;98423.64;3754809;77;43677;-24
2021/04/01 08:47:59;;;;;;;15.80;8.65;;;;;;;13.07;74.59;98423.81;3712226;79;44082;-24
2021/04/01 08:53:17;;;;;;;16.95;10.03;;;;;;;13.35;71.08;98419.23;3759919;79;43686;-24
2021/04/01 08:58:29;;;;;;;14.93;8.48;;;;;;;13.51;68.54;98421.05;3755154;79;43669;-24
2021/04/01 09:03:38;;;;;;;14.10;8.93;;;;;;;13.76;68.52;98412.73;3760757;77;43329;-23
2021/04/01 09:08:48;;;;;;;18.20;10.00;;;;;;;14.02;68.18;98405.55;3758220;77;43729;-23
2021/04/01 09:13:56;;;;;;;15.45;9.08;;;;;;;14.31;65.12;98409.31;3758940;77;43292;-26
2021/04/01 09:19:05;;;;;;;19.95;9.80;;;;;;;14.63;62.77;98396.44;3755588;77;43710;-23
2021/04/01 09:24:13;;;;;;;20.77;10.58;;;;;;;14.92;60.44;98390.16;3759831;79;43415;-25
2021/04/01 09:29:19;;;;;;;19.15;10.15;;;;;;;15.18;58.94;98378.44;3757541;79;43387;-23
2021/04/01 09:34:25;;;;;;;20.82;11.35;;;;;;;15.55;58.60;98369.73;3753134;78;44736;-25
2021/04/01 09:39:36;;;;;;;18.35;10.95;;;;;;;15.87;56.81;98359.38;3735420;79;43237;-24
2021/04/01 09:44:53;;;;;;;19.62;11.53;;;;;;;16.02;56.13;98369.63;3734734;78;44039;-24
2021/04/01 09:50:04;;;;;;;22.93;12.33;;;;;;;16.15;56.61;98361.25;3732633;78;43345;-24
2021/04/01 09:55:14;;;;;;;23.98;12.05;;;;;;;16.18;56.20;98365.77;3735269;79;44527;-24
2021/04/01 10:00:31;;;;;;;22.07;11.50;;;;;;;16.44;57.21;98367.47;3734436;79;44043;-24
2021/04/01 10:05:41;;;;;;;22.80;12.63;;;;;;;16.84;55.70;98364.95;3734484;79;43689;-24
2021/04/01 10:10:49;;;;;;;21.12;13.20;;;;;;;17.09;53.15;98361.19;3735840;79;44420;-24
2021/04/01 10:15:56;;;;;;;23.15;12.47;;;;;;;17.32;52.01;98365.43;3735368;78;44552;-24
2021/04/01 10:21:05;;;;;;;20.85;12.53;;;;;;;17.50;52.46;98364.00;3733431;78;44205;-24
2021/04/01 10:26:13;;;;;;;19.25;12.33;;;;;;;17.66;52.03;98357.31;3735416;78;43345;-25
2021/04/01 10:31:20;;;;;;;20.55;12.47;;;;;;;17.75;51.36;98350.60;3735457;79;43073;-24
2021/04/01 10:36:29;;;;;;;23.90;12.80;;;;;;;17.89;50.55;98358.78;3735264;78;43999;-24
2021/04/01 10:41:36;;;;;;;25.35;13.98;;;;;;;18.07;51.55;98363.08;3735894;79;44113;-26
2021/04/01 10:46:45;;;;;;;23.83;13.30;;;;;;;18.37;50.87;98362.63;3734682;79;44539;-27
2021/04/01 10:51:53;;;;;;;23.22;14.40;;;;;;;18.56;49.80;98359.53;3731385;78;43265;-24
2021/04/01 10:57:02;;;;;;;23.98;14.45;;;;;;;18.52;50.52;98346.55;3733818;78;43681;-24
2021/04/01 11:02:14;;;;;;;27.07;15.55;;;;;;;18.57;50.05;98346.72;3735344;79;44090;-24
2021/04/01 11:07:22;;;;;;;27.22;16.02;;;;;;;18.53;48.52;98340.86;3730755;79;44002;-24
2021/04/01 11:12:28;;;;;;;26.73;16.35;;;;;;;18.59;47.75;98335.06;3735888;79;43716;-24
2021/04/01 11:17:37;;;;;;;27.25;15.38;;;;;;;18.67;46.58;98332.09;3735054;79;43705;-24
2021/04/01 11:22:45;;;;;;;27.67;15.85;;;;;;;18.71;46.79;98316.11;3735046;79;44041;-24
2021/04/01 11:27:53;;;;;;;26.82;15.00;;;;;;;18.81;46.61;98306.11;3735015;78;43272;-24
2021/04/01 11:33:00;;;;;;;28.62;14.80;;;;;;;18.96;44.46;98314.89;3738104;78;43750;-24
2021/04/01 11:38:10;;;;;;;25.27;14.07;;;;;;;19.17;44.53;98305.50;3735305;78;43207;-24
2021/04/01 11:43:17;;;;;;;28.60;14.78;;;;;;;19.46;43.95;98316.87;3735603;79;44054;-24
2021/04/01 11:48:24;;;;;;;28.47;13.72;;;;;;;19.59;43.34;98298.70;3735493;79;43562;-24
2021/04/01 11:53:31;;;;;;;26.27;13.58;;;;;;;19.63;41.50;98295.84;3732846;78;43717;-24
2021/04/01 11:58:38;;;;;;;25.02;13.13;;;;;;;19.56;41.75;98298.08;3735131;78;43678;-24
2021/04/01 12:03:56;;;;;;;27.65;14.40;;;;;;;19.74;41.88;98295.11;3732528;78;43719;-24
2021/04/01 12:09:00;;;;;;;25.00;14.20;;;;;;;19.81;41.51;98301.88;3656616;81;44273;-24
2021/04/01 12:14:11;;;;;;;26.50;15.15;;;;;;;20.02;40.36;98293.80;3735734;79;43725;-25
2021/04/01 12:19:18;;;;;;;28.60;16.20;;;;;;;19.98;40.18;98291.23;3732730;79;44036;-24
2021/04/01 12:24:24;;;;;;;31.68;15.32;;;;;;;20.01;40.92;98276.58;3735767;78;43728;-25
2021/04/01 12:29:31;;;;;;;24.63;13.95;;;;;;;20.36;40.36;98274.30;3735125;79;44050;-25
2021/04/01 12:34:40;;;;;;;32.75;15.40;;;;;;;20.35;38.27;98268.52;3735231;78;26883;-25
2021/04/01 12:39:47;;;;;;;26.17;14.13;;;;;;;20.77;39.69;98264.02;3754089;77;44699;-25
2021/04/01 12:44:54;;;;;;;30.70;16.02;;;;;;;20.74;36.66;98268.58;3762568;77;43357;-25
2021/04/01 12:50:02;;;;;;;26.05;15.72;;;;;;;20.69;36.80;98256.63;3758797;79;42923;-25
2021/04/01 12:55:11;;;;;;;29.05;16.75;;;;;;;20.75;36.84;98256.56;3759201;79;44190;-24
2021/04/01 13:00:33;;;;;;;30.08;18.57;;;;;;;20.81;37.51;98243.85;3759236;79;43721;-24
2021/04/01 13:05:39;;;;;;;35.63;19.12;;;;;;;20.82;37.74;98241.41;3757631;79;44049;-25
2021/04/01 13:10:44;;;;;;;36.20;20.32;;;;;;;20.90;37.65;98234.23;3759591;77;44706;-24
2021/04/01 13:15:51;;;;;;;34.05;19.23;;;;;;;20.91;38.49;98235.09;3759185;77;42933;-24
2021/04/01 13:20:57;;;;;;;36.50;18.67;;;;;;;20.99;36.61;98231.19;3755703;78;44066;-25
2021/04/01 13:26:04;;;;;;;30.00;18.27;;;;;;;21.05;38.84;98231.60;3759280;79;44059;-25
2021/04/01 13:31:20;;;;;;;35.08;18.62;;;;;;;21.14;37.42;98225.27;3759964;77;43100;-24
2021/04/01 13:36:25;;;;;;;34.35;17.95;;;;;;;20.88;37.94;98221.30;3759476;79;43406;-25
2021/04/01 13:41:42;;;;;;;32.73;17.50;;;;;;;21.14;37.24;98219.78;3759610;79;43401;-25
2021/04/01 13:46:45;;;;;;;30.70;16.37;;;;;;;21.11;35.64;98211.48;3758259;77;42889;-25
2021/04/01 13:51:56;;;;;;;28.55;13.55;;;;;;;21.32;36.87;98198.31;3759128;77;44695;-25
2021/04/01 13:57:10;;;;;;;24.20;13.08;;;;;;;21.22;36.09;98214.80;3759393;79;44064;-24
2021/04/01 14:13:08;;;;;;;20.85;10.70;;;;;;;20.40;36.83;98216.16;3759533;79;43401;-24
2021/04/01 14:18:16;;;;;;;22.62;11.50;;;;;;;20.33;36.55;98214.88;3758570;77;44046;-25
2021/04/01 14:23:25;;;;;;;23.32;11.97;;;;;;;20.17;36.24;98234.11;3759121;77;44514;-24
2021/04/01 14:28:31;;;;;;;25.48;12.45;;;;;;;20.01;36.38;98230.09;3759139;79;43685;-25
2021/04/01 14:33:39;;;;;;;25.20;14.15;;;;;;;20.05;36.74;98225.55;3759889;79;44083;-25
2021/04/01 14:38:47;;;;;;;25.55;13.13;;;;;;;20.43;36.22;98218.44;3748775;78;43717;-24
2021/04/01 14:44:02;;;;;;;24.57;14.15;;;;;;;20.90;36.43;98219.72;3736863;79;43368;-24
2021/04/01 14:49:04;;;;;;;27.50;15.90;;;;;;;21.03;36.13;98216.78;3735110;79;43685;-25
2021/04/01 14:54:12;;;;;;;37.40;17.40;;;;;;;20.61;37.56;98217.57;3740072;78;43096;-25
2021/04/01 14:59:21;;;;;;;32.67;16.52;;;;;;;20.75;36.38;98219.61;3734908;78;43721;-25
2021/04/01 15:04:30;;;;;;;25.55;14.43;;;;;;;20.69;36.88;98225.14;3734362;79;43083;-25
2021/04/01 15:09:36;;;;;;;22.25;11.48;;;;;;;20.42;36.67;98214.03;3733483;79;44763;-25
2021/04/01 15:14:43;;;;;;;48.00;26.62;;;;;;;20.55;37.38;98219.84;3735353;79;44042;-25
2021/04/01 15:19:52;;;;;;;47.90;27.93;;;;;;;20.09;40.87;98224.86;3734410;79;44067;-25
2021/04/01 15:24:59;;;;;;;58.55;32.20;;;;;;;19.24;43.31;98231.20;3735785;78;43149;-25
2021/04/01 15:30:06;;;;;;;50.50;28.38;;;;;;;19.00;43.59;98236.94;3732430;78;43148;-24
2021/04/01 15:35:14;;;;;;;61.20;30.75;;;;;;;18.55;44.12;98241.05;3735421;78;43774;-24
2021/04/01 15:40:20;;;;;;;61.42;30.70;;;;;;;18.36;45.09;98242.31;3732855;79;43543;-24
2021/04/01 15:45:26;;;;;;;63.73;31.30;;;;;;;18.16;45.09;98240.50;3735406;79;44014;-24
2021/04/01 15:50:32;;;;;;;59.23;31.27;;;;;;;17.85;46.97;98243.38;3735660;79;43319;-24
2021/04/01 15:55:39;;;;;;;57.60;30.40;;;;;;;17.78;46.84;98265.72;3735617;79;43637;-24
2021/04/01 16:00:45;;;;;;;55.85;28.55;;;;;;;17.81;47.59;98254.41;3734968;79;43314;-24
2021/04/01 16:05:51;;;;;;;51.65;27.27;;;;;;;17.92;47.16;98259.71;3735241;78;44188;-24
2021/04/01 16:10:57;;;;;;;49.38;27.22;;;;;;;17.65;47.49;98273.91;3734913;78;44086;-24
2021/04/01 16:16:04;;;;;;;47.38;27.07;;;;;;;17.38;48.62;98276.12;3723046;79;44586;-25
2021/04/01 16:21:10;;;;;;;49.73;27.87;;;;;;;17.18;48.85;98270.66;3731759;79;43291;-24
2021/04/01 16:26:16;;;;;;;45.55;28.20;;;;;;;16.84;50.21;98279.25;3736237;79;44072;-24
2021/04/01 16:31:26;;;;;;;49.18;27.37;;;;;;;16.70;51.10;98282.44;3736433;79;43995;-24
2021/04/01 16:36:33;;;;;;;46.63;27.17;;;;;;;16.32;52.85;98285.13;3736675;78;44019;-24
2021/04/01 16:41:40;;;;;;;44.63;27.00;;;;;;;16.16;54.06;98300.42;3752772;77;44117;-24
2021/04/01 16:46:46;;;;;;;44.50;24.27;;;;;;;15.95;53.73;98300.80;3760230;78;42999;-23
2021/04/01 16:51:55;;;;;;;40.85;24.87;;;;;;;15.81;52.80;98308.53;3755603;79;43782;-24
2021/04/01 16:57:03;;;;;;;46.15;25.52;;;;;;;15.61;52.78;98320.06;3760522;79;44034;-24
2021/04/01 17:02:09;;;;;;;45.33;26.60;;;;;;;15.32;53.36;98334.13;3760354;79;44567;-24
2021/04/01 17:07:14;;;;;;;42.98;25.82;;;;;;;15.11;57.38;98337.66;3760389;79;42854;-24
2021/04/01 17:12:20;;;;;;;36.90;24.25;;;;;;;14.76;62.78;98326.64;3760863;77;44897;-24
2021/04/01 17:17:28;;;;;;;38.15;25.40;;;;;;;14.55;63.31;98355.36;3760413;77;44059;-24
2021/04/01 17:22:34;;;;;;;33.92;22.00;;;;;;;14.39;63.38;98352.33;3760693;77;44465;-24
2021/04/01 17:27:40;;;;;;;31.45;19.67;;;;;;;14.18;65.60;98362.03;3759816;79;43291;-24
2021/04/01 17:32:46;;;;;;;40.08;24.45;;;;;;;13.81;69.96;98380.52;3760180;78;43204;-24
2021/04/01 17:37:52;;;;;;;37.13;23.70;;;;;;;13.36;75.82;98389.81;3759853;79;44735;-24
2021/04/01 17:42:58;;;;;;;42.65;24.75;;;;;;;13.08;77.69;98406.05;3760072;79;44016;-24
2021/04/01 17:48:06;;;;;;;44.42;27.62;;;;;;;12.67;83.94;98412.16;3760412;77;44086;-24
2021/04/01 17:53:13;;;;;;;44.67;25.60;;;;;;;12.43;86.65;98417.98;3758287;77;43701;-24
2021/04/01 17:58:19;;;;;;;36.98;22.37;;;;;;;12.21;88.67;98427.16;3759589;79;44099;-24
2021/04/01 18:03:45;;;;;;;37.08;21.70;;;;;;;11.74;92.60;98448.08;3760036;79;44028;-23
2021/04/01 18:09:32;;;;;;;36.60;21.17;;;;;;;11.39;97.79;98450.94;3758357;79;44010;-24
2021/04/01 18:25:10;;;;;;;35.75;20.45;;;;;;;10.75;100.00;98475.16;3751668;77;43689;-23
2021/04/01 18:30:19;;;;;;;31.62;18.85;;;;;;;10.42;100.00;98485.73;3740364;77;44271;-23
2021/04/01 18:35:33;;;;;;;32.58;18.17;;;;;;;10.27;100.00;98498.08;3747136;79;43145;-23
2021/04/01 18:40:41;;;;;;;34.20;19.60;;;;;;;10.03;100.00;98511.69;3748521;77;44401;-23
2021/04/01 18:45:48;;;;;;;34.92;21.02;;;;;;;10.00;100.00;98515.52;3742735;77;44561;-23
2021/04/01 18:50:55;;;;;;;35.60;21.50;;;;;;;9.94;100.00;98530.09;3746645;79;44081;-23
2021/04/01 18:56:07;;;;;;;34.38;19.30;;;;;;;9.95;100.00;98531.78;3743540;77;43724;-23
2021/04/01 19:01:21;;;;;;;40.00;22.07;;;;;;;9.63;100.00;98550.66;3748294;77;44107;-23
2021/04/01 19:06:22;;;;;;;34.20;19.35;;;;;;;9.58;100.00;98558.35;3746641;77;44081;-24
2021/04/01 19:22:21;;;;;;;31.00;17.57;;;;;;;9.64;100.00;98581.94;3758398;77;43204;-23
2021/04/01 19:27:27;;;;;;;27.17;16.52;;;;;;;9.62;100.00;98583.94;3758539;78;43255;-23
2021/04/01 19:32:34;;;;;;;30.00;15.93;;;;;;;9.60;100.00;98581.41;3759302;77;43348;-23
2021/04/01 19:37:41;;;;;;;27.22;15.70;;;;;;;9.33;100.00;98593.86;3756089;77;43456;-23
2021/04/01 19:42:48;;;;;;;32.13;16.00;;;;;;;9.34;100.00;98590.17;3745391;78;43360;-23
2021/04/01 19:48:07;;;;;;;25.02;13.45;;;;;;;9.38;100.00;98606.37;3734787;79;44714;-24
2021/04/01 19:53:13;;;;;;;25.08;13.55;;;;;;;9.17;100.00;98592.33;3735369;79;43349;-24
2021/04/01 19:58:22;;;;;;;23.52;12.60;;;;;;;8.92;100.00;98607.60;3734750;78;43681;-24
2021/04/01 20:03:28;;;;;;;21.05;13.03;;;;;;;8.94;100.00;98617.71;3735071;78;43692;-24
2021/04/01 20:08:34;;;;;;;20.80;11.00;;;;;;;8.91;100.00;98634.12;3733842;78;42864;-24
2021/04/01 20:13:41;;;;;;;15.85;9.53;;;;;;;8.81;100.00;98629.27;3734849;79;43353;-24
2021/04/01 20:18:48;;;;;;;17.73;9.55;;;;;;;8.73;100.00;98630.50;3734882;78;44166;-23
2021/04/01 20:23:55;;;;;;;16.62;9.40;;;;;;;8.57;100.00;98629.75;3730471;79;42997;-24
2021/04/01 20:29:00;;;;;;;15.28;9.28;;;;;;;8.59;100.00;98650.09;3735631;79;44478;-23
2021/04/01 20:34:07;;;;;;;16.30;8.73;;;;;;;8.58;100.00;98664.51;3736971;79;43476;-24
2021/04/01 20:39:14;;;;;;;13.78;6.83;;;;;;;8.51;100.00;98671.92;3734973;78;44060;-23
2021/04/01 20:44:20;;;;;;;10.40;6.75;;;;;;;8.21;100.00;98673.73;3734313;78;42846;-23
2021/04/01 20:49:26;;;;;;;13.50;6.80;;;;;;;8.17;100.00;98662.44;3735390;79;42752;-23
2021/04/01 20:54:31;;;;;;;10.78;6.10;;;;;;;8.04;100.00;98674.77;3731172;79;44070;-23
2021/04/01 20:59:37;;;;;;;9.98;6.20;;;;;;;7.93;100.00;98697.69;3733119;79;44704;-24
2021/04/01 21:04:44;;;;;;;9.48;5.80;;;;;;;7.92;100.00;98696.86;3735269;79;43689;-23
2021/04/01 21:09:50;;;;;;;11.28;5.42;;;;;;;7.80;100.00;98688.56;3735915;79;42953;-24
2021/04/01 21:14:56;;;;;;;7.65;5.78;;;;;;;7.65;100.00;98700.14;3734993;78;44181;-24
2021/04/01 21:20:01;;;;;;;7.87;5.22;;;;;;;7.61;100.00;98712.97;3734150;78;44044;-24
2021/04/01 21:25:12;;;;;;;8.00;5.70;;;;;;;7.64;100.00;98716.73;3732756;78;44515;-24
2021/04/01 21:30:22;;;;;;;6.70;5.15;;;;;;;7.63;100.00;98723.08;3735079;79;43682;-24
2021/04/01 21:35:28;;;;;;;7.30;5.28;;;;;;;7.55;100.00;98729.11;3735992;79;43711;-25
2021/04/01 21:40:35;;;;;;;7.28;5.83;;;;;;;7.46;100.00;98730.42;3735363;79;43974;-23
2021/04/01 21:45:42;;;;;;;8.13;5.97;;;;;;;7.48;100.00;98724.41;3757094;78;44006;-23
2021/04/01 21:50:50;;;;;;;8.88;5.83;;;;;;;7.38;100.00;98714.50;3762614;77;43721;-23
2021/04/01 21:55:57;;;;;;;7.28;5.87;;;;;;;7.33;100.00;98714.07;3758740;77;43388;-25
2021/04/01 22:01:04;;;;;;;7.05;5.72;;;;;;;7.33;100.00;98720.77;3760024;78;43451;-25
2021/04/01 22:06:10;;;;;;;6.80;4.90;;;;;;;7.31;100.00;98727.22;3759720;79;43213;-23
2021/04/01 22:11:16;;;;;;;7.62;5.30;;;;;;;6.96;100.00;98715.03;3759907;79;43431;-23
2021/04/01 22:16:22;;;;;;;5.75;4.67;;;;;;;7.07;100.00;98725.20;3759617;79;44052;-22
2021/04/01 22:21:28;;;;;;;6.25;4.90;;;;;;;6.94;100.00;98726.72;3759911;79;43376;-23
2021/04/01 22:26:34;;;;;;;5.65;4.37;;;;;;;6.93;100.00;98736.23;3764375;77;44181;-25
2021/04/01 22:31:40;;;;;;;5.17;4.20;;;;;;;6.65;100.00;98725.17;3759444;77;43313;-25
2021/04/01 22:36:46;;;;;;;5.78;4.35;;;;;;;6.68;100.00;98722.24;3759813;79;44000;-25
2021/04/01 22:41:52;;;;;;;5.42;4.25;;;;;;;6.62;100.00;98722.77;3759222;78;43303;-25
2021/04/01 22:46:58;;;;;;;5.15;4.20;;;;;;;6.50;100.00;98726.47;3735023;79;43709;-23
2021/04/01 22:52:06;;;;;;;5.90;4.28;;;;;;;6.46;100.00;98722.70;3732321;79;44101;-23
2021/04/01 22:57:12;;;;;;;5.65;4.20;;;;;;;6.51;100.00;98727.67;3735225;79;43346;-23
2021/04/01 23:02:18;;;;;;;4.58;4.00;;;;;;;6.56;100.00;98717.91;3735380;78;43262;-23
2021/04/01 23:07:24;;;;;;;4.62;4.15;;;;;;;6.58;100.00;98716.83;3735131;79;43274;-23
2021/04/01 23:12:31;;;;;;;5.75;4.33;;;;;;;6.46;100.00;98713.34;3735336;79;44081;-23
2021/04/01 23:17:37;;;;;;;6.75;4.22;;;;;;;6.48;100.00;98712.73;3735142;79;43720;-23
2021/04/01 23:22:44;;;;;;;5.33;4.10;;;;;;;6.51;100.00;98712.11;3733300;79;43733;-23
2021/04/01 23:27:50;;;;;;;4.30;3.72;;;;;;;6.42;100.00;98724.43;3735171;79;44078;-23
2021/04/01 23:32:57;;;;;;;4.37;3.85;;;;;;;6.29;100.00;98716.08;3735265;78;44054;-23
2021/04/01 23:38:04;;;;;;;4.53;3.83;;;;;;;6.37;100.00;98715.45;3734535;78;44175;-23
2021/04/01 23:43:11;;;;;;;5.75;3.72;;;;;;;6.35;100.00;98724.08;3738950;77;44006;-23
2021/04/01 23:48:18;;;;;;;4.97;4.10;;;;;;;6.39;100.00;98716.17;3759569;79;42989;-23
2021/04/01 23:53:24;;;;;;;5.15;4.22;;;;;;;6.45;100.00;98723.68;3759612;79;44031;-23
2021/04/01 23:58:30;;;;;;;5.47;4.50;;;;;;;6.28;100.00;98723.74;3759393;79;44069;-23
